Time;durP1;ratioP1;P1;durP2;ratioP2;P2;SDS_P1;SDS_P2;PMS_P1;PMS_P2;Temp;Humidity;BMP_temperature;BMP_pressure;BME280_temperature;BME280_humidity;BME280_pressure;Samples;Min_cycle;Max_cycle;Signal;HPM_P1;HPM_P2
2023/10/07 00:02:50;;;;;;;;;;;8.60;99.90;;;;;;5078117;28;19908;-56
2023/10/07 00:05:16;;;;;;;;;;;8.60;99.90;;;;;;5077847;28;19954;-57
2023/10/07 00:07:45;;;;;;;;;;;8.60;99.90;;;;;;5077615;28;19912;-57
2023/10/07 00:10:15;;;;;;;;;;;8.60;99.90;;;;;;5077730;28;19912;-56
2023/10/07 00:12:42;;;;;;;;;;;8.50;99.90;;;;;;5077436;28;19912;-57
2023/10/07 00:15:11;;;;;;;;;;;8.60;99.90;;;;;;5077760;28;19914;-56
2023/10/07 00:17:42;;;;;;;;;;;8.50;99.90;;;;;;5077631;28;20255;-56
2023/10/07 00:20:12;;;;;;;;;;;8.50;99.90;;;;;;5077392;28;19919;-56
2023/10/07 00:22:41;;;;;;;;;;;8.40;99.90;;;;;;5077423;28;19916;-57
2023/10/07 00:25:07;;;;;;;;;;;8.40;99.90;;;;;;5077313;28;20285;-57
2023/10/07 00:27:38;;;;;;;;;;;8.30;99.90;;;;;;5077375;28;20446;-56
2023/10/07 00:30:13;;;;;;;;;;;8.30;99.90;;;;;;5059338;28;19920;-56
2023/10/07 00:32:39;;;;;;;;;;;8.40;99.90;;;;;;5077232;28;19915;-56
2023/10/07 00:35:06;;;;;;;;;;;8.50;99.90;;;;;;5077511;28;19908;-56
2023/10/07 00:37:35;;;;;;;;;;;8.40;99.90;;;;;;5077142;28;19999;-56
2023/10/07 00:40:14;;;;;;;;;;;8.30;99.90;;;;;;5077137;28;19912;-56
2023/10/07 00:42:44;;;;;;;;;;;8.20;99.90;;;;;;5077075;28;20276;-57
2023/10/07 00:45:16;;;;;;;;;;;8.20;99.90;;;;;;5077033;28;19908;-56
2023/10/07 00:47:49;;;;;;;;;;;8.20;99.90;;;;;;5077066;28;19909;-56
2023/10/07 00:50:15;;;;;;;;;;;8.10;99.90;;;;;;5076920;28;20452;-56
2023/10/07 00:53:06;;;;;;;;;;;8.20;99.90;;;;;;5076787;28;20285;-56
2023/10/07 00:55:34;;;;;;;;;;;8.10;99.90;;;;;;5076276;28;19909;-56
2023/10/07 00:58:26;;;;;;;;;;;8.20;99.90;;;;;;5074951;28;19951;-56
2023/10/07 01:00:55;;;;;;;;;;;8.00;99.90;;;;;;5056770;28;19943;-56
2023/10/07 01:06:14;;;;;;;;;;;8.10;99.90;;;;;;5056761;28;19924;-56
2023/10/07 01:08:45;;;;;;;;;;;8.00;99.90;;;;;;5056272;28;20429;-56
2023/10/07 01:13:50;;;;;;;;;;;8.00;99.90;;;;;;5038522;28;20339;-56
2023/10/07 01:16:33;;;;;;;;;;;8.00;99.90;;;;;;5038619;28;19908;-56
2023/10/07 01:21:55;;;;;;;;;;;7.90;99.90;;;;;;5038560;28;20370;-56
2023/10/07 01:25:06;;;;;;;;;;;7.90;99.90;;;;;;5056311;28;19915;-56
2023/10/07 01:30:07;;;;;;;;;;;7.90;99.90;;;;;;5056273;28;19909;-56
2023/10/07 01:32:33;;;;;;;;;;;7.80;99.90;;;;;;5056123;28;20369;-56
2023/10/07 01:35:05;;;;;;;;;;;7.80;99.90;;;;;;5056046;28;19914;-56
2023/10/07 01:37:41;;;;;;;;;;;7.80;99.90;;;;;;5055976;28;19916;-56
2023/10/07 01:40:12;;;;;;;;;;;8.00;99.90;;;;;;5056043;28;20005;-56
2023/10/07 01:42:38;;;;;;;;;;;8.00;99.90;;;;;;5056045;28;19980;-56
2023/10/07 01:45:22;;;;;;;;;;;7.90;99.90;;;;;;5055903;28;20354;-56
2023/10/07 01:47:49;;;;;;;;;;;7.90;99.90;;;;;;5056065;28;19912;-56
2023/10/07 01:50:18;;;;;;;;;;;7.80;99.90;;;;;;5038209;28;19995;-56
2023/10/07 01:52:48;;;;;;;;;;;7.80;99.90;;;;;;5037833;28;19936;-57
2023/10/07 01:55:17;;;;;;;;;;;7.70;99.90;;;;;;5038036;28;19917;-56
2023/10/07 01:57:44;;;;;;;;;;;7.80;99.90;;;;;;5037987;28;19980;-56
2023/10/07 02:00:11;;;;;;;;;;;7.80;99.90;;;;;;5056193;28;19936;-56
2023/10/07 02:02:48;;;;;;;;;;;7.80;99.90;;;;;;5075829;28;19908;-56
2023/10/07 02:05:25;;;;;;;;;;;7.80;99.90;;;;;;5075857;28;19994;-56
2023/10/07 02:07:53;;;;;;;;;;;7.70;99.90;;;;;;5075814;28;19996;-56
2023/10/07 02:10:25;;;;;;;;;;;7.60;99.90;;;;;;5057724;28;19908;-56
2023/10/07 02:12:53;;;;;;;;;;;7.70;99.90;;;;;;5075593;28;19908;-56
2023/10/07 02:15:19;;;;;;;;;;;7.70;99.90;;;;;;5057835;28;19946;-56
2023/10/07 02:17:47;;;;;;;;;;;7.60;99.90;;;;;;5075775;28;19909;-56
2023/10/07 02:20:27;;;;;;;;;;;7.60;99.90;;;;;;5074343;28;19974;-56
2023/10/07 02:22:53;;;;;;;;;;;7.50;99.90;;;;;;5075742;28;19915;-56
2023/10/07 02:25:26;;;;;;;;;;;7.50;99.90;;;;;;5075609;28;19908;-56
2023/10/07 02:27:54;;;;;;;;;;;7.50;99.90;;;;;;5074402;28;19909;-56
2023/10/07 02:30:20;;;;;;;;;;;7.40;99.90;;;;;;5075591;28;19915;-56
2023/10/07 02:32:47;;;;;;;;;;;7.40;99.90;;;;;;5075788;28;19951;-56
2023/10/07 02:35:17;;;;;;;;;;;7.50;99.90;;;;;;5075830;28;19909;-56
2023/10/07 02:37:49;;;;;;;;;;;7.60;99.90;;;;;;5075546;28;20019;-56
2023/10/07 02:40:35;;;;;;;;;;;7.60;99.90;;;;;;5074262;28;20015;-56
2023/10/07 02:43:07;;;;;;;;;;;7.70;99.90;;;;;;5074389;28;19908;-56
2023/10/07 02:45:39;;;;;;;;;;;7.50;99.90;;;;;;5075449;28;20110;-56
2023/10/07 02:48:10;;;;;;;;;;;7.60;99.90;;;;;;5076669;28;20170;-56
2023/10/07 02:50:39;;;;;;;;;;;7.50;99.90;;;;;;5061426;28;19915;-56
2023/10/07 02:53:11;;;;;;;;;;;7.70;99.90;;;;;;5079089;28;20499;-56
2023/10/07 02:55:58;;;;;;;;;;;7.70;99.90;;;;;;5079221;28;19999;-56
2023/10/07 02:58:32;;;;;;;;;;;7.60;99.90;;;;;;5075117;28;20282;-56
2023/10/07 03:01:10;;;;;;;;;;;7.70;99.90;;;;;;5041155;28;19966;-56
2023/10/07 03:03:38;;;;;;;;;;;7.60;99.90;;;;;;5058941;28;19959;-56
2023/10/07 03:06:07;;;;;;;;;;;7.60;99.90;;;;;;5057750;28;19908;-56
2023/10/07 03:13:50;;;;;;;;;;;7.00;99.90;;;;;;5040831;28;19908;-56
2023/10/07 03:18:56;;;;;;;;;;;7.20;99.90;;;;;;5040816;28;19904;-56
2023/10/07 03:24:13;;;;;;;;;;;7.20;99.90;;;;;;5040780;28;20419;-56
2023/10/07 03:26:41;;;;;;;;;;;7.10;99.90;;;;;;5058663;28;19913;-56
2023/10/07 03:29:07;;;;;;;;;;;7.00;99.90;;;;;;5058841;28;19916;-56
2023/10/07 03:31:55;;;;;;;;;;;6.90;99.90;;;;;;5058440;28;19912;-56
2023/10/07 03:34:20;;;;;;;;;;;7.00;99.90;;;;;;5058056;28;19916;-56
2023/10/07 03:37:14;;;;;;;;;;;6.90;99.90;;;;;;5058341;28;19909;-56
2023/10/07 03:42:16;;;;;;;;;;;6.80;99.90;;;;;;5058254;28;19916;-56
2023/10/07 03:44:42;;;;;;;;;;;6.80;99.90;;;;;;5040361;28;19905;-56
2023/10/07 03:47:10;;;;;;;;;;;6.70;99.90;;;;;;5058099;28;19908;-56
2023/10/07 03:49:40;;;;;;;;;;;6.70;99.90;;;;;;5058137;28;19908;-56
2023/10/07 03:52:08;;;;;;;;;;;6.70;99.90;;;;;;5058075;28;19909;-56
2023/10/07 03:54:40;;;;;;;;;;;6.70;99.90;;;;;;5057958;28;20003;-56
2023/10/07 03:57:07;;;;;;;;;;;6.80;99.90;;;;;;5058024;28;19999;-56
2023/10/07 03:59:34;;;;;;;;;;;6.70;99.90;;;;;;5070584;28;19909;-56
2023/10/07 04:02:00;;;;;;;;;;;6.90;99.90;;;;;;5077923;28;19919;-56
2023/10/07 04:04:28;;;;;;;;;;;6.90;99.90;;;;;;5077835;28;20354;-56
2023/10/07 04:06:54;;;;;;;;;;;6.90;99.90;;;;;;5077727;28;20285;-56
2023/10/07 04:09:32;;;;;;;;;;;6.80;99.90;;;;;;5077735;28;19908;-56
2023/10/07 04:11:59;;;;;;;;;;;6.80;99.90;;;;;;5077674;28;19908;-56
2023/10/07 04:14:28;;;;;;;;;;;6.80;99.90;;;;;;5077820;28;19955;-56
2023/10/07 04:17:05;;;;;;;;;;;6.70;99.90;;;;;;5077706;28;19919;-56
2023/10/07 04:19:38;;;;;;;;;;;6.80;99.90;;;;;;5077477;28;19908;-56
2023/10/07 04:22:07;;;;;;;;;;;6.70;99.90;;;;;;5077614;28;20206;-56
2023/10/07 04:24:35;;;;;;;;;;;6.70;99.90;;;;;;5077464;28;20377;-56
2023/10/07 04:27:05;;;;;;;;;;;6.80;99.90;;;;;;5077396;28;19957;-56
2023/10/07 04:29:31;;;;;;;;;;;6.70;99.90;;;;;;5077383;28;19908;-56
2023/10/07 04:31:57;;;;;;;;;;;6.70;99.90;;;;;;5077150;28;19904;-56
2023/10/07 04:34:26;;;;;;;;;;;6.70;99.90;;;;;;5077142;28;20289;-56
2023/10/07 04:39:37;;;;;;;;;;;6.70;99.90;;;;;;5077150;28;20433;-56
2023/10/07 04:42:20;;;;;;;;;;;6.70;99.90;;;;;;5077195;28;19908;-56
2023/10/07 04:47:35;;;;;;;;;;;6.70;99.90;;;;;;5076993;28;19909;-56
2023/10/07 04:52:30;;;;;;;;;;;6.60;99.90;;;;;;5076918;28;19977;-56
2023/10/07 04:54:59;;;;;;;;;;;6.60;99.90;;;;;;5076865;28;20418;-56
2023/10/07 04:58:12;;;;;;;;;;;6.60;99.90;;;;;;5076973;28;19912;-56
2023/10/07 05:02:59;;;;;;;;;;;6.60;99.90;;;;;;5056678;28;19908;-56
2023/10/07 05:05:25;;;;;;;;;;;6.50;99.90;;;;;;5056671;28;19909;-56
2023/10/07 05:07:56;;;;;;;;;;;6.50;99.90;;;;;;5056501;28;20426;-56
2023/10/07 05:10:23;;;;;;;;;;;6.60;99.90;;;;;;5055863;28;19915;-56
2023/10/07 05:12:51;;;;;;;;;;;6.70;99.90;;;;;;5056234;28;19908;-56
2023/10/07 05:15:19;;;;;;;;;;;6.60;99.90;;;;;;5056499;28;19915;-56
2023/10/07 05:17:45;;;;;;;;;;;6.60;99.90;;;;;;5056497;28;19909;-56
2023/10/07 05:20:27;;;;;;;;;;;6.60;99.90;;;;;;5056277;28;19922;-56
2023/10/07 05:22:53;;;;;;;;;;;6.80;99.90;;;;;;5056396;28;19915;-56
2023/10/07 05:25:21;;;;;;;;;;;7.20;99.90;;;;;;5038420;28;19913;-56
2023/10/07 05:27:47;;;;;;;;;;;7.70;99.90;;;;;;5056394;28;19908;-56
2023/10/07 05:30:15;;;;;;;;;;;8.30;99.90;;;;;;5038545;28;20369;-56
2023/10/07 05:32:42;;;;;;;;;;;9.20;99.90;;;;;;5056048;28;19909;-56
2023/10/07 05:35:08;;;;;;;;;;;9.70;99.90;;;;;;5056187;28;19916;-56
2023/10/07 05:37:34;;;;;;;;;;;10.10;99.90;;;;;;5056091;28;20417;-56
2023/10/07 05:40:02;;;;;;;;;;;10.60;99.90;;;;;;5056153;28;19916;-56
2023/10/07 05:42:29;;;;;;;;;;;11.00;99.90;;;;;;5056093;28;19908;-56
2023/10/07 05:44:54;;;;;;;;;;;11.30;99.70;;;;;;5055928;28;19917;-56
2023/10/07 05:47:21;;;;;;;;;;;11.00;99.70;;;;;;5056036;28;20110;-56
2023/10/07 05:49:46;;;;;;;;;;;11.30;99.90;;;;;;5056052;28;19916;-56
2023/10/07 05:52:12;;;;;;;;;;;11.10;99.30;;;;;;5055889;28;19909;-56
2023/10/07 05:54:38;;;;;;;;;;;11.30;98.60;;;;;;5055919;28;19904;-56
2023/10/07 05:57:06;;;;;;;;;;;11.10;99.90;;;;;;5055848;28;19913;-56
2023/10/07 05:59:35;;;;;;;;;;;11.30;98.70;;;;;;5068916;28;19909;-56
2023/10/07 06:02:05;;;;;;;;;;;11.00;98.90;;;;;;5075745;28;19912;-56
2023/10/07 06:04:31;;;;;;;;;;;10.90;99.30;;;;;;5075843;28;19912;-56
2023/10/07 06:06:57;;;;;;;;;;;10.60;99.90;;;;;;5075806;28;20007;-56
2023/10/07 06:09:23;;;;;;;;;;;10.60;99.90;;;;;;5075819;28;19993;-56
2023/10/07 06:11:49;;;;;;;;;;;10.50;99.90;;;;;;5075782;28;19909;-56
2023/10/07 06:14:18;;;;;;;;;;;10.50;99.90;;;;;;5075675;28;20412;-57
2023/10/07 06:16:44;;;;;;;;;;;11.10;99.90;;;;;;5075700;28;19946;-56
2023/10/07 06:19:13;;;;;;;;;;;11.30;99.90;;;;;;5075699;28;19905;-56
2023/10/07 06:21:50;;;;;;;;;;;11.60;99.90;;;;;;5076205;28;19912;-56
2023/10/07 06:24:21;;;;;;;;;;;11.80;99.60;;;;;;5079699;28;19915;-56
2023/10/07 06:26:48;;;;;;;;;;;12.00;99.90;;;;;;5079611;28;19909;-56
2023/10/07 06:29:18;;;;;;;;;;;12.50;98.90;;;;;;5079535;28;19961;-56
2023/10/07 06:31:49;;;;;;;;;;;12.50;98.50;;;;;;5079485;28;20304;-56
2023/10/07 06:34:15;;;;;;;;;;;13.20;98.10;;;;;;5079523;28;19908;-56
2023/10/07 06:36:41;;;;;;;;;;;13.20;96.60;;;;;;5079562;28;20314;-56
2023/10/07 06:39:10;;;;;;;;;;;13.40;96.30;;;;;;5079488;28;19947;-56
2023/10/07 06:41:36;;;;;;;;;;;13.50;95.50;;;;;;5079350;28;19982;-56
2023/10/07 06:44:03;;;;;;;;;;;14.10;94.40;;;;;;5079306;28;19908;-56
2023/10/07 06:46:29;;;;;;;;;;;13.70;95.80;;;;;;5079236;28;19905;-56
2023/10/07 06:48:56;;;;;;;;;;;13.50;94.90;;;;;;5079448;28;19909;-57
2023/10/07 06:51:23;;;;;;;;;;;13.70;94.50;;;;;;5079165;28;19908;-57
2023/10/07 06:53:49;;;;;;;;;;;14.20;94.60;;;;;;5079104;28;19924;-56
2023/10/07 06:56:21;;;;;;;;;;;14.70;94.30;;;;;;5079151;28;19912;-56
2023/10/07 06:58:54;;;;;;;;;;;15.00;92.40;;;;;;5071973;28;19909;-57
2023/10/07 07:01:35;;;;;;;;;;;14.90;92.90;;;;;;5058973;28;20359;-56
2023/10/07 07:04:25;;;;;;;;;;;16.10;92.20;;;;;;5058976;28;19995;-56
2023/10/07 07:07:16;;;;;;;;;;;16.00;91.10;;;;;;5058415;28;19919;-57
2023/10/07 07:09:43;;;;;;;;;;;16.30;89.50;;;;;;5058967;28;19909;-57
2023/10/07 07:12:09;;;;;;;;;;;17.50;88.20;;;;;;5058821;28;19915;-56
2023/10/07 07:14:36;;;;;;;;;;;17.40;86.40;;;;;;5058601;28;19913;-57
2023/10/07 07:22:34;;;;;;;;;;;18.30;79.50;;;;;;5058920;28;19962;-57
2023/10/07 07:25:21;;;;;;;;;;;18.50;79.50;;;;;;5058652;28;19908;-57
2023/10/07 07:27:52;;;;;;;;;;;19.30;76.20;;;;;;5058559;28;20370;-57
2023/10/07 07:30:31;;;;;;;;;;;19.50;73.80;;;;;;5058475;28;20015;-57
2023/10/07 07:32:59;;;;;;;;;;;19.60;72.80;;;;;;5058306;28;19915;-57
2023/10/07 07:35:43;;;;;;;;;;;20.00;70.50;;;;;;5057883;28;19912;-57
2023/10/07 07:38:18;;;;;;;;;;;20.20;69.90;;;;;;5058413;28;19915;-57
2023/10/07 07:40:44;;;;;;;;;;;20.70;65.60;;;;;;5058146;28;19917;-57
2023/10/07 07:43:13;;;;;;;;;;;20.20;67.80;;;;;;5058244;28;19916;-57
2023/10/07 07:45:39;;;;;;;;;;;20.60;67.50;;;;;;5058319;28;19908;-57
2023/10/07 07:48:06;;;;;;;;;;;21.00;64.10;;;;;;5058160;28;19908;-57
2023/10/07 07:50:35;;;;;;;;;;;21.00;62.60;;;;;;5058161;28;19954;-57
2023/10/07 07:53:06;;;;;;;;;;;21.20;63.10;;;;;;5057989;28;19908;-57
2023/10/07 07:55:37;;;;;;;;;;;21.90;60.40;;;;;;5058047;28;19908;-57
2023/10/07 07:58:03;;;;;;;;;;;22.10;58.60;;;;;;5058696;28;19942;-57
2023/10/07 08:00:31;;;;;;;;;;;21.90;59.40;;;;;;5077566;28;19926;-57
2023/10/07 08:02:58;;;;;;;;;;;22.10;57.10;;;;;;5078110;28;20015;-57
2023/10/07 08:05:28;;;;;;;;;;;22.10;56.80;;;;;;5077934;28;19912;-57
2023/10/07 08:07:58;;;;;;;;;;;22.30;56.60;;;;;;5077869;28;19923;-57
2023/10/07 08:10:24;;;;;;;;;;;22.10;55.20;;;;;;5077785;28;19991;-57
2023/10/07 08:12:50;;;;;;;;;;;22.70;55.30;;;;;;5077446;28;19908;-57
2023/10/07 08:15:22;;;;;;;;;;;22.80;55.60;;;;;;5077630;28;19915;-57
2023/10/07 08:17:51;;;;;;;;;;;22.80;56.70;;;;;;5077710;28;19954;-57
2023/10/07 08:20:26;;;;;;;;;;;22.90;56.20;;;;;;5077496;28;19909;-57
2023/10/07 08:22:53;;;;;;;;;;;22.90;56.10;;;;;;5077419;28;19908;-57
2023/10/07 08:28:18;;;;;;;;;;;24.50;54.30;;;;;;5077516;28;20350;-57
2023/10/07 08:30:46;;;;;;;;;;;24.30;52.60;;;;;;5077317;28;20365;-57
2023/10/07 08:33:15;;;;;;;;;;;24.50;54.40;;;;;;5077153;28;19915;-57
2023/10/07 08:35:44;;;;;;;;;;;24.50;50.50;;;;;;5077269;28;19999;-57
2023/10/07 08:38:20;;;;;;;;;;;24.60;49.70;;;;;;5077181;28;19908;-57
2023/10/07 08:40:51;;;;;;;;;;;23.70;51.40;;;;;;5077202;28;19913;-57
2023/10/07 08:43:25;;;;;;;;;;;24.00;52.50;;;;;;5076942;28;19908;-57
2023/10/07 08:45:51;;;;;;;;;;;25.30;51.10;;;;;;5077106;28;19908;-57
2023/10/07 08:48:17;;;;;;;;;;;26.00;47.60;;;;;;5077029;28;19904;-58
2023/10/07 08:50:55;;;;;;;;;;;25.90;45.70;;;;;;5076667;28;19909;-57
2023/10/07 08:53:25;;;;;;;;;;;25.80;44.90;;;;;;5076858;28;19915;-57
2023/10/07 08:55:53;;;;;;;;;;;25.50;44.70;;;;;;5076858;28;19957;-57
2023/10/07 08:58:22;;;;;;;;;;;25.60;43.60;;;;;;5073896;28;19932;-58
2023/10/07 09:00:50;;;;;;;;;;;25.50;43.40;;;;;;5056707;28;19920;-58
2023/10/07 09:03:18;;;;;;;;;;;25.30;43.90;;;;;;5056735;28;19916;-58
2023/10/07 09:05:47;;;;;;;;;;;25.60;45.20;;;;;;5056754;28;19920;-57
2023/10/07 09:08:15;;;;;;;;;;;25.70;42.60;;;;;;5056469;28;19913;-58
2023/10/07 09:10:45;;;;;;;;;;;26.00;44.10;;;;;;5056608;28;20270;-57
2023/10/07 09:13:12;;;;;;;;;;;26.50;43.10;;;;;;5056338;28;20373;-57
2023/10/07 09:15:42;;;;;;;;;;;26.40;40.70;;;;;;5056516;28;19915;-58
2023/10/07 09:18:10;;;;;;;;;;;26.20;42.50;;;;;;5056465;28;19908;-57
2023/10/07 09:20:45;;;;;;;;;;;26.20;40.20;;;;;;5056225;28;19912;-57
2023/10/07 09:23:20;;;;;;;;;;;26.50;40.90;;;;;;5056386;28;19909;-57
2023/10/07 09:25:50;;;;;;;;;;;26.70;38.70;;;;;;5056429;28;19931;-57
2023/10/07 09:28:19;;;;;;;;;;;27.10;39.10;;;;;;5056285;28;20358;-57
2023/10/07 09:30:45;;;;;;;;;;;27.30;39.10;;;;;;5056194;28;19920;-57
2023/10/07 09:33:17;;;;;;;;;;;27.40;36.10;;;;;;5056235;28;19915;-57
2023/10/07 09:35:45;;;;;;;;;;;27.60;37.00;;;;;;5056203;28;20381;-57
2023/10/07 09:38:27;;;;;;;;;;;27.60;39.20;;;;;;5056183;28;19955;-57
2023/10/07 09:41:24;;;;;;;;;;;27.70;34.80;;;;;;5056124;28;19917;-57
2023/10/07 09:43:42;;;;;;;;;;;28.70;36.40;;;;;;5055499;28;19978;-57
2023/10/07 09:46:08;;;;;;;;;;;28.20;34.20;;;;;;5056025;28;19915;-57
2023/10/07 09:48:41;;;;;;;;;;;28.30;35.20;;;;;;5055935;28;19927;-57
2023/10/07 09:51:14;;;;;;;;;;;28.50;33.10;;;;;;5055927;28;19916;-57
2023/10/07 09:53:58;;;;;;;;;;;28.10;33.80;;;;;;5055956;28;19915;-57
2023/10/07 09:56:38;;;;;;;;;;;28.80;34.70;;;;;;5055537;28;19931;-57
2023/10/07 09:59:16;;;;;;;;;;;28.60;31.90;;;;;;5065081;28;19912;-57
2023/10/07 10:01:42;;;;;;;;;;;28.80;32.00;;;;;;5075850;28;19912;-57
2023/10/07 10:04:13;;;;;;;;;;;29.00;32.60;;;;;;5075826;28;19962;-57
2023/10/07 10:07:00;;;;;;;;;;;29.00;28.80;;;;;;5075711;28;20002;-57
2023/10/07 10:09:42;;;;;;;;;;;29.70;30.00;;;;;;5075814;28;19908;-57
2023/10/07 10:12:27;;;;;;;;;;;29.20;29.00;;;;;;5075700;28;19920;-57
2023/10/07 10:15:50;;;;;;;;;;;29.80;28.00;;;;;;5075730;28;19916;-57
2023/10/07 10:17:48;;;;;;;;;;;30.40;29.30;;;;;;5073538;28;19916;-57
2023/10/07 10:20:18;;;;;;;;;;;30.10;28.70;;;;;;5075607;28;20009;-57
2023/10/07 10:22:50;;;;;;;;;;;30.50;25.10;;;;;;5075606;28;20385;-57
2023/10/07 10:25:21;;;;;;;;;;;30.70;26.80;;;;;;5075559;28;20327;-57
2023/10/07 10:27:47;;;;;;;;;;;30.60;24.80;;;;;;5075467;28;19990;-57
2023/10/07 10:30:23;;;;;;;;;;;30.60;24.00;;;;;;5075542;28;20373;-57
2023/10/07 10:32:57;;;;;;;;;;;30.40;25.20;;;;;;5075391;28;19908;-58
2023/10/07 10:35:24;;;;;;;;;;;30.00;25.00;;;;;;5075599;28;19908;-57
2023/10/07 10:37:56;;;;;;;;;;;30.40;25.80;;;;;;5075496;28;19916;-57
2023/10/07 10:40:23;;;;;;;;;;;30.60;24.90;;;;;;5075431;28;20259;-58
2023/10/07 10:42:49;;;;;;;;;;;30.50;23.60;;;;;;5075411;28;20413;-57
2023/10/07 10:45:17;;;;;;;;;;;30.70;21.80;;;;;;5075366;28;19909;-58
2023/10/07 10:47:45;;;;;;;;;;;30.60;22.50;;;;;;5075467;28;19936;-57
2023/10/07 10:50:16;;;;;;;;;;;30.60;21.50;;;;;;5075409;28;19908;-57
2023/10/07 10:52:44;;;;;;;;;;;30.90;20.80;;;;;;5074971;28;19951;-58
2023/10/07 10:55:11;;;;;;;;;;;30.80;19.90;;;;;;5057431;28;19931;-58
2023/10/07 10:57:40;;;;;;;;;;;30.40;20.20;;;;;;5075072;28;19916;-58
2023/10/07 11:00:18;;;;;;;;;;;30.80;19.70;;;;;;5057289;28;19916;-58
2023/10/07 11:02:45;;;;;;;;;;;30.50;21.60;;;;;;5055425;28;19912;-58
2023/10/07 11:05:12;;;;;;;;;;;30.60;20.10;;;;;;5055410;28;19909;-58
2023/10/07 11:07:39;;;;;;;;;;;30.00;20.70;;;;;;5055147;28;19913;-58
2023/10/07 11:10:07;;;;;;;;;;;30.50;20.80;;;;;;5057763;28;20289;-58
2023/10/07 11:12:32;;;;;;;;;;;29.20;20.20;;;;;;5058761;28;19915;-57
2023/10/07 11:15:12;;;;;;;;;;;28.80;20.50;;;;;;5058813;28;19999;-58
2023/10/07 11:17:41;;;;;;;;;;;29.30;21.80;;;;;;5058815;28;19908;-58
2023/10/07 11:20:09;;;;;;;;;;;30.10;24.10;;;;;;5058730;28;19920;-58
2023/10/07 11:22:42;;;;;;;;;;;30.30;19.90;;;;;;5058638;28;19913;-58
2023/10/07 11:25:14;;;;;;;;;;;30.30;19.70;;;;;;5058969;28;19916;-58
2023/10/07 11:27:43;;;;;;;;;;;30.30;20.00;;;;;;5040857;28;19912;-58
2023/10/07 11:30:14;;;;;;;;;;;29.80;19.00;;;;;;5058558;28;20259;-57
2023/10/07 11:32:41;;;;;;;;;;;30.20;20.20;;;;;;5058418;28;20281;-58
2023/10/07 11:35:20;;;;;;;;;;;30.30;19.30;;;;;;5058484;28;20354;-58
2023/10/07 11:37:46;;;;;;;;;;;30.20;19.30;;;;;;5058348;28;19909;-58
2023/10/07 11:40:12;;;;;;;;;;;30.60;18.40;;;;;;5058294;28;20456;-57
2023/10/07 11:42:38;;;;;;;;;;;30.10;18.40;;;;;;5058368;28;19951;-58
2023/10/07 11:45:08;;;;;;;;;;;30.00;17.10;;;;;;5058188;28;20348;-58
2023/10/07 11:47:36;;;;;;;;;;;29.80;15.80;;;;;;5058730;28;19912;-58
2023/10/07 11:50:04;;;;;;;;;;;30.00;16.40;;;;;;5040283;28;19905;-57
2023/10/07 11:52:32;;;;;;;;;;;30.30;18.40;;;;;;5058107;28;20412;-58
2023/10/07 11:54:57;;;;;;;;;;;30.80;16.40;;;;;;5058099;28;19909;-58
2023/10/07 11:57:24;;;;;;;;;;;30.70;15.90;;;;;;5057990;28;19923;-58
2023/10/07 11:59:49;;;;;;;;;;;31.10;16.90;;;;;;5073383;28;19908;-58
2023/10/07 12:02:16;;;;;;;;;;;31.10;14.90;;;;;;5077919;28;19908;-58
2023/10/07 12:04:45;;;;;;;;;;;31.30;15.10;;;;;;5077719;28;19904;-58
2023/10/07 12:07:14;;;;;;;;;;;31.50;14.90;;;;;;5077713;28;19916;-58
2023/10/07 12:09:46;;;;;;;;;;;31.30;13.80;;;;;;5077997;28;19919;-58
2023/10/07 12:12:14;;;;;;;;;;;30.80;14.00;;;;;;5077760;28;19942;-58
2023/10/07 12:14:40;;;;;;;;;;;31.10;15.60;;;;;;5077642;28;20011;-58
2023/10/07 12:17:07;;;;;;;;;;;31.20;13.80;;;;;;5077704;28;20429;-58
2023/10/07 12:19:34;;;;;;;;;;;31.40;13.10;;;;;;5077306;28;20369;-58
2023/10/07 12:22:00;;;;;;;;;;;31.20;12.60;;;;;;5077490;28;19912;-58
2023/10/07 12:24:29;;;;;;;;;;;31.10;14.00;;;;;;5077540;28;19916;-58
2023/10/07 12:26:56;;;;;;;;;;;30.80;14.30;;;;;;5077544;28;19909;-58
2023/10/07 12:29:25;;;;;;;;;;;30.90;14.40;;;;;;5077412;28;19908;-58
2023/10/07 12:31:51;;;;;;;;;;;30.80;13.10;;;;;;5077331;28;20362;-58
2023/10/07 12:34:18;;;;;;;;;;;30.70;12.60;;;;;;5077229;28;19958;-58
2023/10/07 12:36:44;;;;;;;;;;;30.70;13.50;;;;;;5077228;28;19915;-58
2023/10/07 12:39:11;;;;;;;;;;;30.70;13.70;;;;;;5077251;28;19915;-58
2023/10/07 12:41:39;;;;;;;;;;;30.90;15.80;;;;;;5077162;28;20381;-58
2023/10/07 12:44:08;;;;;;;;;;;30.10;15.30;;;;;;5077018;28;19916;-58
2023/10/07 12:46:35;;;;;;;;;;;30.40;17.30;;;;;;5077101;28;19912;-58
2023/10/07 12:49:01;;;;;;;;;;;30.90;15.10;;;;;;5076989;28;19911;-58
2023/10/07 12:51:27;;;;;;;;;;;30.90;13.50;;;;;;5077050;28;20355;-58
2023/10/07 12:53:56;;;;;;;;;;;31.00;13.00;;;;;;5076952;28;20136;-58
2023/10/07 12:56:23;;;;;;;;;;;30.40;12.50;;;;;;5076643;28;19908;-58
2023/10/07 12:58:49;;;;;;;;;;;30.50;12.30;;;;;;5069571;28;19921;-58
2023/10/07 13:01:19;;;;;;;;;;;30.40;12.30;;;;;;5056841;28;19923;-58
2023/10/07 13:03:45;;;;;;;;;;;30.50;12.30;;;;;;5056746;28;19913;-58
2023/10/07 13:06:11;;;;;;;;;;;30.90;12.10;;;;;;5056862;28;20251;-59
2023/10/07 13:08:41;;;;;;;;;;;30.50;11.80;;;;;;5056512;28;19913;-58
2023/10/07 13:11:13;;;;;;;;;;;30.70;13.30;;;;;;5056512;28;20269;-58
2023/10/07 13:13:39;;;;;;;;;;;29.70;11.70;;;;;;5056483;28;19908;-58
2023/10/07 13:16:11;;;;;;;;;;;28.70;12.20;;;;;;5056456;28;19958;-58
2023/10/07 13:18:41;;;;;;;;;;;28.50;15.00;;;;;;5056515;28;19915;-58
2023/10/07 13:21:13;;;;;;;;;;;29.20;14.00;;;;;;5056389;28;19919;-58
2023/10/07 13:23:40;;;;;;;;;;;29.50;15.00;;;;;;5055298;28;19913;-58
2023/10/07 13:26:08;;;;;;;;;;;28.30;11.90;;;;;;5056401;28;19995;-58
2023/10/07 13:28:37;;;;;;;;;;;28.90;13.40;;;;;;5054897;28;19915;-58
2023/10/07 13:31:06;;;;;;;;;;;29.50;15.10;;;;;;5055596;28;19904;-58
2023/10/07 13:33:31;;;;;;;;;;;29.70;15.20;;;;;;5055932;28;19970;-58
2023/10/07 13:35:57;;;;;;;;;;;30.00;13.40;;;;;;5056203;28;19913;-58
2023/10/07 13:38:23;;;;;;;;;;;30.10;12.20;;;;;;5056242;28;19928;-58
2023/10/07 13:40:49;;;;;;;;;;;30.10;11.50;;;;;;5056117;28;19987;-58
2023/10/07 13:43:15;;;;;;;;;;;30.00;12.70;;;;;;5056066;28;19920;-58
2023/10/07 13:45:41;;;;;;;;;;;29.80;13.00;;;;;;5056063;28;19956;-58
2023/10/07 13:48:07;;;;;;;;;;;29.60;12.60;;;;;;5056082;28;20332;-58
2023/10/07 13:50:33;;;;;;;;;;;29.80;15.80;;;;;;5056002;28;20429;-58
2023/10/07 13:53:11;;;;;;;;;;;29.70;12.30;;;;;;5055869;28;19909;-58
2023/10/07 13:58:12;;;;;;;;;;;29.50;13.20;;;;;;5057166;28;20242;-58
2023/10/07 14:00:44;;;;;;;;;;;29.40;12.60;;;;;;5076134;28;20015;-58
2023/10/07 14:03:20;;;;;;;;;;;29.30;13.50;;;;;;5076083;28;19979;-58
2023/10/07 14:05:49;;;;;;;;;;;29.00;11.60;;;;;;5075974;28;19915;-58
2023/10/07 14:08:16;;;;;;;;;;;28.80;12.20;;;;;;5075670;28;19916;-58
2023/10/07 14:10:43;;;;;;;;;;;28.40;13.40;;;;;;5075759;28;19915;-58
2023/10/07 14:13:11;;;;;;;;;;;28.60;15.10;;;;;;5075594;28;19908;-58
2023/10/07 14:15:38;;;;;;;;;;;28.40;13.70;;;;;;5075706;28;20007;-58
2023/10/07 14:18:05;;;;;;;;;;;27.90;18.10;;;;;;5075776;28;20354;-58
2023/10/07 14:20:31;;;;;;;;;;;27.60;15.40;;;;;;5075573;28;19912;-58
2023/10/07 14:22:57;;;;;;;;;;;27.00;19.70;;;;;;5075643;28;19958;-58
2023/10/07 14:25:25;;;;;;;;;;;26.50;19.80;;;;;;5075634;28;20350;-58
2023/10/07 14:27:53;;;;;;;;;;;26.20;20.40;;;;;;5075569;28;19908;-58
2023/10/07 14:30:24;;;;;;;;;;;26.00;22.50;;;;;;5075573;28;19915;-58
2023/10/07 14:32:50;;;;;;;;;;;25.90;23.20;;;;;;5075519;28;20373;-58
2023/10/07 14:35:16;;;;;;;;;;;25.70;24.60;;;;;;5075827;28;19912;-58
2023/10/07 14:37:45;;;;;;;;;;;25.70;25.40;;;;;;5075836;28;19908;-58
2023/10/07 14:40:12;;;;;;;;;;;25.80;25.90;;;;;;5075510;28;19915;-58
2023/10/07 14:42:40;;;;;;;;;;;25.50;28.50;;;;;;5076352;28;19908;-58
2023/10/07 14:45:07;;;;;;;;;;;25.50;29.60;;;;;;5079322;28;19908;-57
2023/10/07 14:47:33;;;;;;;;;;;25.10;30.20;;;;;;5079387;28;20300;-58
2023/10/07 14:50:00;;;;;;;;;;;25.00;29.80;;;;;;5079438;28;19958;-58
2023/10/07 14:52:27;;;;;;;;;;;25.00;30.00;;;;;;5079311;28;19991;-58
2023/10/07 14:54:54;;;;;;;;;;;24.90;29.90;;;;;;5079164;28;20281;-57
2023/10/07 14:57:21;;;;;;;;;;;24.90;29.80;;;;;;5079089;28;19958;-58
2023/10/07 14:59:47;;;;;;;;;;;24.70;31.40;;;;;;5063898;28;19912;-57
2023/10/07 15:02:13;;;;;;;;;;;24.30;31.00;;;;;;5059035;28;19912;-57
2023/10/07 15:04:41;;;;;;;;;;;23.90;33.20;;;;;;5059075;28;19915;-57
2023/10/07 15:07:07;;;;;;;;;;;23.40;34.30;;;;;;5058946;28;19995;-57
2023/10/07 15:09:34;;;;;;;;;;;23.20;36.70;;;;;;5058965;28;19915;-57
2023/10/07 15:12:05;;;;;;;;;;;23.00;37.00;;;;;;5058709;28;19913;-57
2023/10/07 15:14:31;;;;;;;;;;;22.50;38.50;;;;;;5058934;28;19909;-57
2023/10/07 15:16:57;;;;;;;;;;;22.30;39.10;;;;;;5058784;28;19912;-57
2023/10/07 15:19:23;;;;;;;;;;;22.00;41.40;;;;;;5058853;28;19908;-57
2023/10/07 15:21:51;;;;;;;;;;;21.90;42.30;;;;;;5058616;28;19915;-57
2023/10/07 15:24:17;;;;;;;;;;;21.70;44.20;;;;;;5058626;28;19917;-58